Portada
METAR-TAF:

METAR-TAF

Aeroports :

Tomsk, Rússia

latitud: 56-23-12N, longitud: 085-12-38E, altitud: 182 m

Observació

L'informe es va fer fa 23 minuts, a les 05:30 UTC
Vent 8 kt del Est
Temperatura -6°C
Humitat 93%
Pressió 1026 hPa
Visibilitat 10 km o més
sense núvols per sota de 1500 mi sense presència de cumulonimbus.

METAR: UNTT 250530Z 09004MPS CAVOK M06/M07 Q1026 R21/820150 NOSIG RMK QFE754

Hora: 12:53 (05:53 UTC)

Pronòstic

L'informe es va fer fa 55 minuts, a les 04:58 UTC
Pronòstic vàlid del 25 a les 06 UTC al 25 a les 15 UTC
Vent 6 kt del Nord-Est amb ràfegues de 16 kt
Visibilitat 10 km o més
Núvols disperses a una alçada de 3000 ft

TAF: UNTT 250458Z 2506/2515 04003G08MPS 9999 SCT030

Observacions i pronòstics meteorològics de més de 4000 aeroports (METAR i TAF).

Les estacions disponibles són els punts grocs i vermells al mapa.

Posi el ratolí al punt desitjat per veure el nom de l'estació.

Feu clic per veure les observacions i els pronòstics meteorològics.

Per canviar el mapa: feu clic els botons verds amb una creu de color negre per apropar; al botó verd amb un guió per allunyar la imatge; o en les fletxes verdes per a mapes adjacents.


METAR-TAF: